createdAt,value
2024-02-16T00:00:09.344Z,11.27
2024-02-16T00:01:09.322Z,11.49
2024-02-16T00:02:09.268Z,10.56
2024-02-16T00:03:09.312Z,11.05
2024-02-16T00:04:09.328Z,10.01
2024-02-16T00:05:09.538Z,10.77
2024-02-16T00:06:09.290Z,10.77
2024-02-16T00:07:09.341Z,10.27
2024-02-16T00:08:09.270Z,10.68
2024-02-16T00:09:09.254Z,9.45
2024-02-16T00:10:09.316Z,10.70
2024-02-16T00:11:09.253Z,10.45
2024-02-16T00:12:09.262Z,10.96
2024-02-16T00:13:09.261Z,11.02
2024-02-16T00:14:09.258Z,9.80
2024-02-16T00:15:09.357Z,11.98
2024-02-16T00:16:09.287Z,10.68
2024-02-16T00:17:09.298Z,10.71
2024-02-16T00:18:09.368Z,12.23
2024-02-16T00:19:09.380Z,10.31
2024-02-16T00:20:09.391Z,10.24
2024-02-16T00:21:09.431Z,11.14
2024-02-16T00:22:09.394Z,10.11
2024-02-16T00:23:09.372Z,10.20
2024-02-16T00:24:09.357Z,8.63
2024-02-16T00:25:09.388Z,10.28
2024-02-16T00:26:09.493Z,10.43
2024-02-16T00:27:09.595Z,10.48
2024-02-16T00:28:09.505Z,10.59
2024-02-16T00:29:09.533Z,10.53
2024-02-16T00:30:09.679Z,9.51
2024-02-16T00:31:09.769Z,9.97
2024-02-16T00:32:09.696Z,10.81
2024-02-16T00:33:09.918Z,10.55
2024-02-16T00:34:10.040Z,10.12
2024-02-16T00:35:10.068Z,9.36
2024-02-16T00:36:10.226Z,11.09
2024-02-16T00:37:10.041Z,10.60
2024-02-16T00:38:10.198Z,9.70
2024-02-16T00:39:10.194Z,9.91
2024-02-16T00:40:10.339Z,9.49
2024-02-16T00:41:10.276Z,10.59
2024-02-16T00:42:10.416Z,10.22
2024-02-16T00:43:10.384Z,9.85
2024-02-16T00:44:10.385Z,10.14
2024-02-16T00:45:10.630Z,10.15
2024-02-16T00:46:10.505Z,9.58
2024-02-16T00:47:10.501Z,8.87
2024-02-16T00:48:10.583Z,10.85
2024-02-16T00:49:10.665Z,10.09
2024-02-16T00:50:10.880Z,8.62
2024-02-16T00:51:10.812Z,9.82
2024-02-16T00:52:10.756Z,9.74
2024-02-16T00:53:10.844Z,8.86
2024-02-16T00:54:10.966Z,10.23
2024-02-16T00:55:10.992Z,10.52
2024-02-16T00:56:10.987Z,9.17
2024-02-16T00:57:11.136Z,9.97
2024-02-16T00:58:11.095Z,9.54
2024-02-16T00:59:11.107Z,9.74
2024-02-16T01:00:11.188Z,8.93
2024-02-16T01:01:11.125Z,10.17
2024-02-16T01:02:11.222Z,9.77
2024-02-16T01:03:11.256Z,9.72
2024-02-16T01:04:11.304Z,9.22
2024-02-16T01:05:11.789Z,9.52
2024-02-16T01:06:11.350Z,9.39
2024-02-16T01:07:11.416Z,9.16
2024-02-16T01:08:11.408Z,8.75
2024-02-16T01:09:11.419Z,7.74
2024-02-16T01:10:11.442Z,7.54
2024-02-16T01:11:11.525Z,8.44
2024-02-16T01:12:11.546Z,8.08
2024-02-16T01:13:11.487Z,7.62
2024-02-16T01:14:11.568Z,7.00
2024-02-16T01:15:11.668Z,7.86
2024-02-16T01:16:11.680Z,8.35
2024-02-16T01:17:11.657Z,8.62
2024-02-16T01:18:11.789Z,7.01
2024-02-16T01:19:11.902Z,7.96
2024-02-16T01:20:12.468Z,8.41
2024-02-16T01:21:11.877Z,8.16
2024-02-16T01:22:11.860Z,7.99
2024-02-16T01:23:11.877Z,7.77
2024-02-16T01:24:12.128Z,8.40
2024-02-16T01:25:12.000Z,8.69
2024-02-16T01:26:12.055Z,9.71
2024-02-16T01:27:12.097Z,8.01
2024-02-16T01:28:12.140Z,8.04
2024-02-16T01:29:12.163Z,7.76
2024-02-16T01:30:12.496Z,7.72
2024-02-16T01:31:12.262Z,8.79
2024-02-16T01:32:12.339Z,9.30
2024-02-16T01:33:12.430Z,10.31
2024-02-16T01:34:12.519Z,10.72
2024-02-16T01:35:12.681Z,11.13
2024-02-16T01:36:12.533Z,9.46
2024-02-16T01:37:12.582Z,10.85
2024-02-16T01:38:12.537Z,9.33
2024-02-16T01:39:12.765Z,10.29
2024-02-16T01:40:12.864Z,10.57
2024-02-16T01:41:12.823Z,9.87
2024-02-16T01:42:12.834Z,9.90
2024-02-16T01:43:12.812Z,9.72
2024-02-16T01:44:12.831Z,10.57
2024-02-16T01:45:12.902Z,11.01
2024-02-16T01:46:12.936Z,9.25
2024-02-16T01:47:13.003Z,10.34
2024-02-16T01:48:13.216Z,9.61
2024-02-16T01:49:13.109Z,10.59
2024-02-16T01:50:13.110Z,9.84
2024-02-16T01:51:13.149Z,10.38
2024-02-16T01:52:13.132Z,11.24
2024-02-16T01:53:13.174Z,9.88
2024-02-16T01:54:13.271Z,10.57
2024-02-16T01:55:13.284Z,9.12
2024-02-16T01:56:13.249Z,10.89
2024-02-16T01:57:13.313Z,9.52
2024-02-16T01:58:13.272Z,9.35
2024-02-16T01:59:13.297Z,9.02
2024-02-16T02:00:13.346Z,9.55
2024-02-16T02:01:13.325Z,9.17
2024-02-16T02:02:13.289Z,9.50
2024-02-16T02:03:13.327Z,9.95
2024-02-16T02:04:13.316Z,8.85
2024-02-16T02:05:13.479Z,9.73
2024-02-16T02:06:13.478Z,9.16
2024-02-16T02:07:13.422Z,9.04
2024-02-16T02:08:13.347Z,9.67
2024-02-16T02:09:13.793Z,8.97
2024-02-16T02:10:13.418Z,9.70
2024-02-16T02:11:13.418Z,12.47
2024-02-16T02:12:13.514Z,10.53
2024-02-16T02:13:13.362Z,11.18
2024-02-16T02:14:13.429Z,9.37
2024-02-16T02:15:13.632Z,10.39
2024-02-16T02:16:13.632Z,10.50
2024-02-16T02:17:13.572Z,10.08
2024-02-16T02:18:14.686Z,10.46
2024-02-16T02:19:13.713Z,10.73
2024-02-16T02:20:13.809Z,10.67
2024-02-16T02:21:13.676Z,9.49
2024-02-16T02:22:13.721Z,9.35
2024-02-16T02:23:13.854Z,10.25
2024-02-16T02:24:13.889Z,9.70
2024-02-16T02:25:13.885Z,9.90
2024-02-16T02:26:13.900Z,10.83
2024-02-16T02:27:14.023Z,10.14
2024-02-16T02:28:13.996Z,9.49
2024-02-16T02:29:14.036Z,9.79
2024-02-16T02:30:14.242Z,9.37
2024-02-16T02:31:14.132Z,8.88
2024-02-16T02:32:14.239Z,8.99
2024-02-16T02:33:14.370Z,9.09
2024-02-16T02:34:14.332Z,8.65
2024-02-16T02:35:14.406Z,9.28
2024-02-16T02:36:14.526Z,10.31
2024-02-16T02:37:14.379Z,10.22
2024-02-16T02:38:14.461Z,9.67
2024-02-16T02:39:14.428Z,9.35
2024-02-16T02:40:15.025Z,9.03
2024-02-16T02:41:14.472Z,8.89
2024-02-16T02:42:14.570Z,8.78
2024-02-16T02:43:14.532Z,9.28
2024-02-16T02:44:14.535Z,9.12
2024-02-16T02:45:14.775Z,10.45
2024-02-16T02:46:14.655Z,9.59
2024-02-16T02:47:14.710Z,9.50
2024-02-16T02:48:14.976Z,8.50
2024-02-16T02:49:14.928Z,8.76
2024-02-16T02:50:14.883Z,8.50
2024-02-16T02:51:14.968Z,9.66
2024-02-16T02:52:15.051Z,9.63
2024-02-16T02:53:15.068Z,8.69
2024-02-16T02:54:15.145Z,9.87
2024-02-16T02:55:15.217Z,9.51
2024-02-16T02:56:15.211Z,9.66
2024-02-16T02:57:15.270Z,10.16
2024-02-16T02:58:15.258Z,9.99
2024-02-16T02:59:15.230Z,10.14
2024-02-16T03:00:15.484Z,9.59
2024-02-16T03:01:15.465Z,9.99
2024-02-16T03:02:15.495Z,10.10
2024-02-16T03:03:15.572Z,10.33
2024-02-16T03:04:15.625Z,9.89
2024-02-16T03:05:15.506Z,9.89
2024-02-16T03:06:15.615Z,11.01
2024-02-16T03:07:15.644Z,10.58
2024-02-16T03:08:15.717Z,10.73
2024-02-16T03:09:15.736Z,10.62
2024-02-16T03:10:15.594Z,11.64
2024-02-16T03:11:15.685Z,11.10
2024-02-16T03:12:15.809Z,10.18
2024-02-16T03:13:15.710Z,10.04
2024-02-16T03:14:15.758Z,9.77
2024-02-16T03:15:15.904Z,11.15
2024-02-16T03:16:15.856Z,10.77
2024-02-16T03:17:15.852Z,9.77
2024-02-16T03:18:16.085Z,9.86
2024-02-16T03:19:16.044Z,11.25
2024-02-16T03:20:16.064Z,10.88
2024-02-16T03:21:16.075Z,10.17
2024-02-16T03:22:16.124Z,9.80
2024-02-16T03:23:16.119Z,10.47
2024-02-16T03:24:16.147Z,9.99
2024-02-16T03:25:16.427Z,11.05
2024-02-16T03:26:16.327Z,10.45
2024-02-16T03:27:16.409Z,10.38
2024-02-16T03:28:16.376Z,9.49
2024-02-16T03:29:16.458Z,10.91
2024-02-16T03:30:16.536Z,9.86
2024-02-16T03:31:16.475Z,11.11
2024-02-16T03:32:16.546Z,10.44
2024-02-16T03:33:16.610Z,9.59
2024-02-16T03:34:16.923Z,10.06
2024-02-16T03:35:16.608Z,9.96
2024-02-16T03:36:16.758Z,9.65
2024-02-16T03:37:16.629Z,10.29
2024-02-16T03:38:16.627Z,9.53
2024-02-16T03:39:16.761Z,9.46
2024-02-16T03:40:16.719Z,9.74
2024-02-16T03:41:16.762Z,9.25
2024-02-16T03:42:16.883Z,10.12
2024-02-16T03:43:16.870Z,10.05
2024-02-16T03:44:16.883Z,9.55
2024-02-16T03:45:17.011Z,10.07
2024-02-16T03:46:16.920Z,9.54
2024-02-16T03:47:18.030Z,10.23
2024-02-16T03:48:17.251Z,10.26
2024-02-16T03:49:17.097Z,9.42
2024-02-16T03:50:16.926Z,9.06
2024-02-16T03:51:17.002Z,9.20
2024-02-16T03:52:16.920Z,9.70
2024-02-16T03:53:16.944Z,9.21
2024-02-16T03:54:17.041Z,8.53
2024-02-16T03:55:16.969Z,8.86
2024-02-16T03:56:16.947Z,9.47
2024-02-16T03:57:17.004Z,7.74
2024-02-16T03:58:16.982Z,9.31
2024-02-16T03:59:16.952Z,9.39
2024-02-16T04:00:17.074Z,9.25
2024-02-16T04:01:17.102Z,8.51
2024-02-16T04:02:16.918Z,9.33
2024-02-16T04:03:16.921Z,8.20
2024-02-16T04:04:16.981Z,9.39
2024-02-16T04:05:17.508Z,9.10
2024-02-16T04:06:17.045Z,8.83
2024-02-16T04:07:17.057Z,9.31
2024-02-16T04:08:17.037Z,8.33
2024-02-16T04:09:17.103Z,8.90
2024-02-16T04:10:17.187Z,8.45
2024-02-16T04:11:17.219Z,9.52
2024-02-16T04:12:17.185Z,10.03
2024-02-16T04:13:17.230Z,8.68
2024-02-16T04:14:17.246Z,9.07
2024-02-16T04:15:17.340Z,8.84
2024-02-16T04:16:17.298Z,9.91
2024-02-16T04:17:17.273Z,8.77
2024-02-16T04:18:17.390Z,9.78
2024-02-16T04:19:17.453Z,8.43
2024-02-16T04:20:17.425Z,8.26
2024-02-16T04:21:17.429Z,8.35
2024-02-16T04:22:17.462Z,8.78
2024-02-16T04:23:17.542Z,8.65
2024-02-16T04:24:17.619Z,9.02
2024-02-16T04:25:17.618Z,8.81
2024-02-16T04:26:17.648Z,7.65
2024-02-16T04:27:17.745Z,7.20
2024-02-16T04:28:17.734Z,7.48
2024-02-16T04:29:17.780Z,8.38
2024-02-16T04:30:17.860Z,7.60
2024-02-16T04:31:17.828Z,9.49
2024-02-16T04:32:17.839Z,9.15
2024-02-16T04:33:18.116Z,9.01
2024-02-16T04:34:18.059Z,8.92
2024-02-16T04:35:18.168Z,9.42
2024-02-16T04:36:18.028Z,8.02
2024-02-16T04:37:18.076Z,8.73
2024-02-16T04:38:18.088Z,9.92
2024-02-16T04:39:18.177Z,9.88
2024-02-16T04:40:18.221Z,8.56
2024-02-16T04:41:18.287Z,10.57
2024-02-16T04:42:18.331Z,10.44
2024-02-16T04:43:18.220Z,10.68
2024-02-16T04:44:18.299Z,8.86
2024-02-16T04:45:18.490Z,8.41
2024-02-16T04:46:18.340Z,9.33
2024-02-16T04:47:18.433Z,8.05
2024-02-16T04:48:18.559Z,9.52
2024-02-16T04:49:18.669Z,8.92
2024-02-16T04:50:18.518Z,8.85
2024-02-16T04:51:18.538Z,8.80
2024-02-16T04:52:18.563Z,10.45
2024-02-16T04:53:18.625Z,9.38
2024-02-16T04:54:18.672Z,10.04
2024-02-16T04:55:18.832Z,10.03
2024-02-16T04:56:18.780Z,10.69
2024-02-16T04:57:18.748Z,9.99
2024-02-16T04:58:18.757Z,10.26
2024-02-16T04:59:18.827Z,9.95
2024-02-16T05:00:18.957Z,9.24
2024-02-16T05:01:18.946Z,9.97
2024-02-16T05:02:26.466Z,9.77
2024-02-16T05:03:26.578Z,10.73
2024-02-16T05:04:26.506Z,9.71
2024-02-16T05:05:26.587Z,9.62
2024-02-16T05:06:26.662Z,9.35
2024-02-16T05:07:26.531Z,9.25
2024-02-16T05:08:26.562Z,10.19
2024-02-16T05:09:26.559Z,9.68
2024-02-16T05:10:26.660Z,10.75
2024-02-16T05:11:26.639Z,9.93
2024-02-16T05:12:26.582Z,9.58
2024-02-16T05:13:26.513Z,10.50
2024-02-16T05:14:26.600Z,11.93
2024-02-16T05:15:26.579Z,11.39
2024-02-16T05:16:26.528Z,11.40
2024-02-16T05:17:26.650Z,10.31
2024-02-16T05:18:26.695Z,10.53
2024-02-16T05:19:26.692Z,10.23
2024-02-16T05:20:26.657Z,11.69
2024-02-16T05:21:26.617Z,11.54
2024-02-16T05:22:26.606Z,11.28
2024-02-16T05:23:26.466Z,11.33
2024-02-16T05:24:26.538Z,11.64
2024-02-16T05:25:26.599Z,10.99
2024-02-16T05:26:26.510Z,11.06
2024-02-16T05:27:26.609Z,11.33
2024-02-16T05:28:26.525Z,11.34
2024-02-16T05:29:26.537Z,10.82
2024-02-16T05:30:26.693Z,12.28
2024-02-16T05:31:26.541Z,11.23
2024-02-16T05:32:26.595Z,10.97
2024-02-16T05:33:26.644Z,10.50
2024-02-16T05:34:26.671Z,11.19
2024-02-16T05:35:26.574Z,11.14
2024-02-16T05:36:26.602Z,10.74
2024-02-16T05:37:26.557Z,9.32
2024-02-16T05:38:26.627Z,9.21
2024-02-16T05:39:26.646Z,10.05
2024-02-16T05:40:26.630Z,10.94
2024-02-16T05:41:26.501Z,10.10
2024-02-16T05:42:26.558Z,9.29
2024-02-16T05:43:26.537Z,9.51
2024-02-16T05:44:26.631Z,10.92
2024-02-16T05:45:26.711Z,11.13
2024-02-16T05:46:26.539Z,10.84
2024-02-16T05:47:26.553Z,10.64
2024-02-16T05:48:26.628Z,11.17
2024-02-16T05:49:26.667Z,11.87
2024-02-16T05:50:26.768Z,11.14
2024-02-16T05:51:26.658Z,11.79
2024-02-16T05:52:26.784Z,10.72
2024-02-16T05:53:26.765Z,11.52
2024-02-16T05:54:26.812Z,11.60
2024-02-16T05:55:26.876Z,11.06
2024-02-16T05:56:26.920Z,11.20
2024-02-16T05:57:26.968Z,11.02
2024-02-16T05:58:26.920Z,10.86
2024-02-16T05:59:27.052Z,10.00
2024-02-16T06:00:27.600Z,10.80
2024-02-16T06:01:27.171Z,9.73
2024-02-16T06:02:27.160Z,10.99
2024-02-16T06:03:27.185Z,10.15
2024-02-16T06:04:27.321Z,11.11
2024-02-16T06:05:27.407Z,10.23
2024-02-16T06:06:27.424Z,11.14
2024-02-16T06:07:27.532Z,10.10
2024-02-16T06:08:30.617Z,10.64
2024-02-16T06:09:27.510Z,10.75
2024-02-16T06:10:27.454Z,11.58
2024-02-16T06:11:27.536Z,11.84
2024-02-16T06:12:27.489Z,11.18
2024-02-16T06:13:27.451Z,9.93
2024-02-16T06:14:27.457Z,11.83
2024-02-16T06:15:27.589Z,10.01
2024-02-16T06:16:27.485Z,9.23
2024-02-16T06:17:27.464Z,10.22
2024-02-16T06:18:27.571Z,10.39
2024-02-16T06:19:27.584Z,10.80
2024-02-16T06:20:27.503Z,10.38
2024-02-16T06:21:27.507Z,9.80
2024-02-16T06:22:27.461Z,10.72
2024-02-16T06:23:27.560Z,10.54
2024-02-16T06:24:27.530Z,11.37
2024-02-16T06:25:27.526Z,10.07
2024-02-16T06:26:27.522Z,10.61
2024-02-16T06:27:27.544Z,10.62
2024-02-16T06:28:27.425Z,10.57
2024-02-16T06:29:27.432Z,10.57
2024-02-16T06:30:27.593Z,11.33
2024-02-16T06:31:27.570Z,10.18
2024-02-16T06:32:27.590Z,10.03
2024-02-16T06:33:27.561Z,10.32
2024-02-16T06:34:27.588Z,10.23
2024-02-16T06:35:27.455Z,10.26
2024-02-16T06:36:27.575Z,11.41
2024-02-16T06:37:27.476Z,10.61
2024-02-16T06:38:27.508Z,10.35
2024-02-16T06:39:27.531Z,10.43
2024-02-16T06:40:27.573Z,9.54
2024-02-16T06:41:27.599Z,10.08
2024-02-16T06:42:27.591Z,9.90
2024-02-16T06:43:27.534Z,9.69
2024-02-16T06:44:27.539Z,9.47
2024-02-16T06:45:27.440Z,8.67
2024-02-16T06:46:27.623Z,9.78
2024-02-16T06:47:27.545Z,9.14
2024-02-16T06:48:27.611Z,9.24
2024-02-16T06:49:27.629Z,9.73
2024-02-16T06:50:27.544Z,11.14
2024-02-16T06:51:27.724Z,11.11
2024-02-16T06:52:27.504Z,12.31
2024-02-16T06:53:27.507Z,11.92
2024-02-16T06:54:27.556Z,14.03
2024-02-16T06:55:27.511Z,13.76
2024-02-16T06:56:27.574Z,13.34
2024-02-16T06:57:27.519Z,13.69
2024-02-16T06:58:27.569Z,12.30
2024-02-16T06:59:27.623Z,12.41
2024-02-16T07:00:27.658Z,14.44
2024-02-16T07:01:27.729Z,13.14
2024-02-16T07:02:27.674Z,13.59
2024-02-16T07:03:27.784Z,11.25
2024-02-16T07:04:27.850Z,12.82
2024-02-16T07:05:27.870Z,12.04
2024-02-16T07:06:28.072Z,11.52
2024-02-16T07:07:28.055Z,11.86
2024-02-16T07:08:28.002Z,12.22
2024-02-16T07:09:28.138Z,11.01
2024-02-16T07:10:28.068Z,11.89
2024-02-16T07:11:28.194Z,12.09
2024-02-16T07:12:28.212Z,13.10
2024-02-16T07:13:28.223Z,12.63
2024-02-16T07:14:28.240Z,12.55
2024-02-16T07:15:28.366Z,13.19
2024-02-16T07:16:28.313Z,15.22
2024-02-16T07:17:28.388Z,14.48
2024-02-16T07:18:28.636Z,14.41
2024-02-16T07:19:28.553Z,14.23
2024-02-16T07:20:28.511Z,14.95
2024-02-16T07:21:28.598Z,14.43
2024-02-16T07:22:28.511Z,13.70
2024-02-16T07:23:28.614Z,15.22
2024-02-16T07:24:28.726Z,15.59
2024-02-16T07:25:28.693Z,14.69
2024-02-16T07:26:29.164Z,15.60
2024-02-16T07:27:28.788Z,16.04
2024-02-16T07:28:28.774Z,15.61
2024-02-16T07:29:28.858Z,15.44
2024-02-16T07:30:36.875Z,15.19
2024-02-16T07:31:29.893Z,14.10
2024-02-16T07:32:28.896Z,15.01
2024-02-16T07:33:29.053Z,16.76
2024-02-16T07:34:28.973Z,14.78
2024-02-16T07:35:28.895Z,15.96
2024-02-16T07:36:28.953Z,15.06
2024-02-16T07:37:28.885Z,17.09
2024-02-16T07:38:28.858Z,16.13
2024-02-16T07:39:28.990Z,17.68
2024-02-16T07:40:28.835Z,18.22
2024-02-16T07:41:28.889Z,17.83
2024-02-16T07:42:28.995Z,18.54
2024-02-16T07:43:28.868Z,18.19
2024-02-16T07:44:28.876Z,17.45
2024-02-16T07:45:29.146Z,17.60
2024-02-16T07:46:28.915Z,16.56
2024-02-16T07:47:29.039Z,16.73
2024-02-16T07:48:29.123Z,20.72
2024-02-16T07:49:29.097Z,20.89
2024-02-16T07:50:29.113Z,20.09
2024-02-16T07:51:29.101Z,17.53
2024-02-16T07:52:29.148Z,19.36
2024-02-16T07:53:29.224Z,16.44
2024-02-16T07:54:29.256Z,16.58
2024-02-16T07:55:29.285Z,18.34
2024-02-16T07:56:29.414Z,16.27
2024-02-16T07:57:29.349Z,16.67
2024-02-16T07:58:29.353Z,15.92
2024-02-16T07:59:29.379Z,15.62
2024-02-16T08:00:29.459Z,16.33
2024-02-16T08:01:29.480Z,15.37
2024-02-16T08:02:29.462Z,14.85
2024-02-16T08:03:29.548Z,15.81
2024-02-16T08:04:29.547Z,15.27
2024-02-16T08:05:29.667Z,14.95
2024-02-16T08:06:29.943Z,16.97
2024-02-16T08:07:29.904Z,17.30
2024-02-16T08:08:29.636Z,17.54
2024-02-16T08:09:29.813Z,15.53
2024-02-16T08:10:29.757Z,14.00
2024-02-16T08:11:29.878Z,13.30
2024-02-16T08:12:29.841Z,15.88
2024-02-16T08:13:29.867Z,16.19
2024-02-16T08:14:29.944Z,15.75
2024-02-16T08:15:30.077Z,15.65
2024-02-16T08:16:30.021Z,14.74
2024-02-16T08:17:30.018Z,16.22
2024-02-16T08:18:30.210Z,15.77
2024-02-16T08:19:30.088Z,15.22
2024-02-16T08:20:30.078Z,15.79
2024-02-16T08:21:30.162Z,16.03
2024-02-16T08:22:30.102Z,15.50
2024-02-16T08:23:30.120Z,15.11
2024-02-16T08:24:30.206Z,15.32
2024-02-16T08:25:30.136Z,14.02
2024-02-16T08:26:30.144Z,14.42
2024-02-16T08:27:30.244Z,15.30
2024-02-16T08:28:30.073Z,14.54
2024-02-16T08:29:30.099Z,14.73
2024-02-16T08:30:30.295Z,13.72
2024-02-16T08:31:30.073Z,13.57
2024-02-16T08:32:30.111Z,14.66
2024-02-16T08:33:30.351Z,13.75
2024-02-16T08:34:30.276Z,14.60
2024-02-16T08:35:30.283Z,14.21
2024-02-16T08:36:30.374Z,15.82
2024-02-16T08:37:30.460Z,13.48
2024-02-16T08:38:30.519Z,10.99
2024-02-16T08:39:30.469Z,9.44
2024-02-16T08:40:30.429Z,8.16
2024-02-16T08:41:30.561Z,7.56
2024-02-16T08:42:30.595Z,8.25
2024-02-16T08:43:30.572Z,8.80
2024-02-16T08:44:30.553Z,9.17
2024-02-16T08:45:30.735Z,11.48
2024-02-16T08:46:30.915Z,13.63
2024-02-16T08:47:30.826Z,15.61
2024-02-16T08:48:30.959Z,13.65
2024-02-16T08:49:30.860Z,11.89
2024-02-16T08:50:30.804Z,12.32
2024-02-16T08:51:31.082Z,12.95
2024-02-16T08:52:30.918Z,12.76
2024-02-16T08:53:30.959Z,12.50
2024-02-16T08:54:31.096Z,13.00
2024-02-16T08:55:31.157Z,13.63
2024-02-16T08:56:31.667Z,13.27
2024-02-16T08:57:31.312Z,13.04
2024-02-16T08:58:31.261Z,12.65
2024-02-16T08:59:31.287Z,12.21
2024-02-16T09:00:31.507Z,11.59
2024-02-16T09:01:31.411Z,12.42
2024-02-16T09:02:31.415Z,11.77
2024-02-16T09:03:31.532Z,13.64
2024-02-16T09:04:31.457Z,12.72
2024-02-16T09:05:31.723Z,11.27
2024-02-16T09:06:31.823Z,12.41
2024-02-16T09:07:31.619Z,11.76
2024-02-16T09:08:31.640Z,13.24
2024-02-16T09:09:31.723Z,12.18
2024-02-16T09:10:31.805Z,11.83
2024-02-16T09:11:31.809Z,11.64
2024-02-16T09:12:31.808Z,13.02
2024-02-16T09:13:33.912Z,12.95
2024-02-16T09:14:31.651Z,13.65
2024-02-16T09:15:31.754Z,12.78
2024-02-16T09:16:31.716Z,12.16
2024-02-16T09:17:31.701Z,12.25
2024-02-16T09:18:31.769Z,11.78
2024-02-16T09:19:31.787Z,12.51
2024-02-16T09:20:32.106Z,12.18
2024-02-16T09:21:31.932Z,14.17
2024-02-16T09:23:31.697Z,12.13
2024-02-16T09:24:31.821Z,12.56
2024-02-16T09:25:31.662Z,12.44
2024-02-16T09:26:31.869Z,14.82
2024-02-16T09:27:31.732Z,14.25
2024-02-16T09:28:31.688Z,15.34
2024-02-16T09:29:31.660Z,14.42
2024-02-16T09:30:31.747Z,12.23
2024-02-16T09:31:31.696Z,12.39
2024-02-16T09:32:31.696Z,12.49
2024-02-16T09:33:31.852Z,13.90
2024-02-16T09:34:31.840Z,12.09
2024-02-16T09:35:31.726Z,13.27
2024-02-16T09:36:31.938Z,11.62
2024-02-16T09:37:31.702Z,10.09
2024-02-16T09:38:31.728Z,10.08
2024-02-16T09:39:31.740Z,11.78
2024-02-16T09:40:31.689Z,11.92
2024-02-16T09:41:31.760Z,10.89
2024-02-16T09:42:31.797Z,10.83
2024-02-16T09:43:31.709Z,10.99
2024-02-16T09:44:31.786Z,10.49
2024-02-16T09:45:31.793Z,9.92
2024-02-16T09:46:31.804Z,11.32
2024-02-16T09:47:31.800Z,10.04
2024-02-16T09:48:31.942Z,10.94
2024-02-16T09:49:38.985Z,10.75
2024-02-16T09:50:32.946Z,11.29
2024-02-16T09:51:31.887Z,9.62
2024-02-16T09:52:31.714Z,8.80
2024-02-16T09:53:31.794Z,9.12
2024-02-16T09:54:31.736Z,9.85
2024-02-16T09:55:31.718Z,10.02
2024-02-16T09:56:31.787Z,10.34
2024-02-16T09:57:31.890Z,9.41
2024-02-16T09:58:31.789Z,9.83
2024-02-16T09:59:31.781Z,10.01
2024-02-16T10:00:31.876Z,9.53
2024-02-16T10:01:31.822Z,9.95
2024-02-16T10:02:31.836Z,9.94
2024-02-16T10:03:31.885Z,9.72
2024-02-16T10:04:35.652Z,9.35
2024-02-16T10:05:32.878Z,10.07
2024-02-16T10:06:31.867Z,9.77
2024-02-16T10:07:31.915Z,8.76
2024-02-16T10:08:31.811Z,10.91
2024-02-16T10:09:31.933Z,9.72
2024-02-16T10:10:31.824Z,11.28
2024-02-16T10:11:32.050Z,9.36
2024-02-16T10:12:31.938Z,9.98
2024-02-16T10:13:31.860Z,6.42
2024-02-16T10:14:31.878Z,9.02
2024-02-16T10:15:31.893Z,8.62
2024-02-16T10:16:31.878Z,9.28
2024-02-16T10:17:31.970Z,9.74
2024-02-16T10:18:32.147Z,8.84
2024-02-16T10:19:31.991Z,8.08
2024-02-16T10:20:31.967Z,9.46
2024-02-16T10:21:32.349Z,8.86
2024-02-16T10:22:47.168Z,8.95
2024-02-16T10:24:32.052Z,8.71
2024-02-16T10:25:33.484Z,9.87
2024-02-16T10:26:32.075Z,10.32
2024-02-16T10:27:32.077Z,8.75
2024-02-16T10:28:31.965Z,8.65
2024-02-16T10:29:31.975Z,9.21
2024-02-16T10:30:32.058Z,8.65
2024-02-16T10:31:32.206Z,7.90
2024-02-16T10:32:32.025Z,9.91
2024-02-16T10:33:32.153Z,8.63
2024-02-16T10:34:32.086Z,8.75
2024-02-16T10:35:31.999Z,7.77
2024-02-16T10:36:32.156Z,7.60
2024-02-16T10:37:32.038Z,7.69
2024-02-16T10:38:32.036Z,8.00
2024-02-16T10:39:32.117Z,8.05
2024-02-16T10:40:32.073Z,8.79
2024-02-16T10:41:32.084Z,9.12
2024-02-16T10:42:32.096Z,7.15
2024-02-16T10:43:32.174Z,7.67
2024-02-16T10:44:32.055Z,7.83
2024-02-16T10:45:32.153Z,6.21
2024-02-16T10:46:32.068Z,7.87
2024-02-16T10:47:32.099Z,7.38
2024-02-16T10:48:32.192Z,7.87
2024-02-16T10:49:32.298Z,8.04
2024-02-16T10:50:32.186Z,8.73
2024-02-16T10:51:32.113Z,7.82
2024-02-16T10:52:32.113Z,7.65
2024-02-16T10:53:32.130Z,7.46
2024-02-16T10:54:32.073Z,7.28
2024-02-16T10:55:32.086Z,7.35
2024-02-16T10:56:32.165Z,7.47
2024-02-16T10:57:32.154Z,6.51
2024-02-16T10:58:32.074Z,6.88
2024-02-16T10:59:32.093Z,6.85
2024-02-16T11:00:32.406Z,6.45
2024-02-16T11:01:32.251Z,6.84
2024-02-16T11:02:32.336Z,6.53
2024-02-16T11:03:33.296Z,7.04
2024-02-16T11:04:32.390Z,6.37
2024-02-16T11:05:32.360Z,6.23
2024-02-16T11:06:32.498Z,5.27
2024-02-16T11:07:32.506Z,6.09
2024-02-16T11:08:32.458Z,6.98
2024-02-16T11:09:32.540Z,5.91
2024-02-16T11:10:33.662Z,4.26
2024-02-16T11:11:32.805Z,5.15
2024-02-16T11:12:32.732Z,5.61
2024-02-16T11:13:32.713Z,4.60
2024-02-16T11:14:32.761Z,4.65
2024-02-16T11:15:32.804Z,5.00
2024-02-16T11:16:32.903Z,4.02
2024-02-16T11:17:32.746Z,4.36
2024-02-16T11:18:33.153Z,2.80
2024-02-16T11:19:32.953Z,2.70
2024-02-16T11:20:32.959Z,3.08
2024-02-16T11:21:33.000Z,3.17
2024-02-16T11:22:32.987Z,3.06
2024-02-16T11:23:32.975Z,2.55
2024-02-16T11:24:33.058Z,3.10
2024-02-16T11:25:33.020Z,2.63
2024-02-16T11:26:33.125Z,2.73
2024-02-16T11:27:33.270Z,1.77
2024-02-16T11:28:33.143Z,2.37
2024-02-16T11:29:33.154Z,2.27
2024-02-16T11:30:33.243Z,2.62
2024-02-16T11:31:33.217Z,2.27
2024-02-16T11:32:33.505Z,2.03
2024-02-16T11:33:33.522Z,2.03
2024-02-16T11:34:33.460Z,2.13
2024-02-16T11:35:33.363Z,2.08
2024-02-16T11:36:33.586Z,1.93
2024-02-16T11:37:33.526Z,1.95
2024-02-16T11:38:33.501Z,2.20
2024-02-16T11:39:33.605Z,1.95
2024-02-16T11:40:33.591Z,2.46
2024-02-16T11:41:34.022Z,2.16
2024-02-16T11:42:33.674Z,2.13
2024-02-16T11:43:33.646Z,1.42
2024-02-16T11:44:33.640Z,2.17
2024-02-16T11:45:33.735Z,2.10
2024-02-16T11:46:33.782Z,2.05
2024-02-16T11:47:33.823Z,1.67
2024-02-16T11:48:33.996Z,2.21
2024-02-16T11:49:33.926Z,1.64
2024-02-16T11:50:33.777Z,2.63
2024-02-16T11:51:34.083Z,2.13
2024-02-16T11:52:33.973Z,1.60
2024-02-16T11:53:34.025Z,1.97
2024-02-16T11:54:34.156Z,2.01
2024-02-16T11:55:34.144Z,1.84
2024-02-16T11:56:34.142Z,1.94
2024-02-16T11:57:34.402Z,2.25
2024-02-16T11:58:34.269Z,2.05
2024-02-16T11:59:34.322Z,1.63
2024-02-16T12:00:34.477Z,1.78
2024-02-16T12:01:34.553Z,2.14
2024-02-16T12:02:34.394Z,2.37
2024-02-16T12:03:34.546Z,2.08
2024-02-16T12:04:39.510Z,2.31
2024-02-16T12:05:35.536Z,2.22
2024-02-16T12:06:34.744Z,1.68
2024-02-16T12:07:34.715Z,1.54
2024-02-16T12:08:34.520Z,1.84
2024-02-16T12:09:34.713Z,2.04
2024-02-16T12:10:34.566Z,1.91
2024-02-16T12:11:34.668Z,2.04
2024-02-16T12:12:34.884Z,2.31
2024-02-16T12:13:34.541Z,2.08
2024-02-16T12:14:34.589Z,2.06
2024-02-16T12:15:34.617Z,1.91
2024-02-16T12:16:34.577Z,1.87
2024-02-16T12:17:34.585Z,1.96
2024-02-16T12:18:34.713Z,1.52
2024-02-16T12:19:34.601Z,1.47
2024-02-16T12:20:34.622Z,1.87
2024-02-16T12:21:34.655Z,1.52
2024-02-16T12:22:34.644Z,1.44
2024-02-16T12:23:34.715Z,1.51
2024-02-16T12:24:34.731Z,1.65
2024-02-16T12:25:34.750Z,1.61
2024-02-16T12:26:34.859Z,1.56
2024-02-16T12:27:35.010Z,2.05
2024-02-16T12:28:34.891Z,1.69
2024-02-16T12:29:34.967Z,1.85
2024-02-16T12:30:35.152Z,1.81
2024-02-16T12:31:35.018Z,1.61
2024-02-16T12:32:35.087Z,1.58
2024-02-16T12:33:35.238Z,1.73
2024-02-16T12:34:35.147Z,2.06
2024-02-16T12:35:35.056Z,1.76
2024-02-16T12:36:35.137Z,1.42
2024-02-16T12:37:35.054Z,1.82
2024-02-16T12:38:35.055Z,1.93
2024-02-16T12:39:35.148Z,1.67
2024-02-16T12:40:35.128Z,1.49
2024-02-16T12:41:35.077Z,1.82
2024-02-16T12:42:35.095Z,1.89
2024-02-16T12:43:35.116Z,1.68
2024-02-16T12:44:35.148Z,1.69
2024-02-16T12:45:35.274Z,2.09
2024-02-16T12:46:35.311Z,2.31
2024-02-16T12:47:35.365Z,2.20
2024-02-16T12:48:35.525Z,1.61
2024-02-16T12:49:35.370Z,2.10
2024-02-16T12:50:35.308Z,2.08
2024-02-16T12:51:35.708Z,1.76
2024-02-16T12:52:37.237Z,2.15
2024-02-16T12:53:36.380Z,2.09
2024-02-16T12:54:35.403Z,1.97
2024-02-16T12:55:35.352Z,2.54
2024-02-16T12:56:35.493Z,1.95
2024-02-16T12:57:35.483Z,2.60
2024-02-16T12:58:35.438Z,2.10
2024-02-16T12:59:35.422Z,2.33
2024-02-16T13:00:35.785Z,1.86
2024-02-16T13:01:35.436Z,2.31
2024-02-16T13:02:35.438Z,2.09
2024-02-16T13:03:35.420Z,1.86
2024-02-16T13:04:35.558Z,2.25
2024-02-16T13:05:35.444Z,2.07
2024-02-16T13:06:35.572Z,2.40
2024-02-16T13:07:35.501Z,2.31
2024-02-16T13:08:35.501Z,1.91